Time;durP1;ratioP1;P1;durP2;ratioP2;P2;SDS_P1;SDS_P2;PMS_P1;PMS_P2;Temp;Humidity;BMP_temperature;BMP_pressure;BME280_temperature;BME280_humidity;BME280_pressure;Samples;Min_cycle;Max_cycle;Signal;HPM_P1;HPM_P2
2022/08/23 00:01:37;;;;;;;9.15;5.50;;;;;;;17.82;nan;101276.94;5032157;28;20084;-63
2022/08/23 00:04:08;;;;;;;11.10;6.47;;;;;;;17.78;nan;101271.84;5015006;28;20041;-67
2022/08/23 00:06:34;;;;;;;11.65;6.07;;;;;;;17.81;nan;101275.19;5032604;28;20405;-63
2022/08/23 00:08:59;;;;;;;13.48;6.57;;;;;;;17.77;nan;101280.78;5031666;28;20026;-62
2022/08/23 00:11:29;;;;;;;10.15;5.68;;;;;;;17.40;nan;101224.19;5032062;28;20501;-62
2022/08/23 00:13:56;;;;;;;7.93;5.57;;;;;;;17.38;nan;101234.06;5032517;28;20054;-61
2022/08/23 00:16:21;;;;;;;9.55;5.65;;;;;;;17.38;nan;101235.88;5014441;28;20052;-62
2022/08/23 00:18:47;;;;;;;6.93;4.95;;;;;;;17.35;nan;101231.59;5031720;28;20033;-62
2022/08/23 00:21:13;;;;;;;9.32;6.38;;;;;;;17.64;nan;101282.41;5031104;28;20037;-62
2022/08/23 00:23:38;;;;;;;12.02;6.88;;;;;;;17.59;nan;101280.00;5014614;28;20439;-62
2022/08/23 00:26:04;;;;;;;10.27;6.00;;;;;;;17.27;nan;101232.94;5032132;28;20036;-62
2022/08/23 00:28:31;;;;;;;8.88;5.93;;;;;;;17.52;nan;101283.88;5032458;28;20064;-62
2022/08/23 00:30:57;;;;;;;9.45;5.68;;;;;;;17.45;nan;101275.38;5032360;28;20049;-62
2022/08/23 00:33:23;;;;;;;9.65;5.60;;;;;;;17.39;nan;101267.75;5032126;28;20033;-61
2022/08/23 00:35:48;;;;;;;11.35;6.45;;;;;;;17.37;nan;101271.41;5014512;28;20128;-61
2022/08/23 00:38:14;;;;;;;10.43;5.78;;;;;;;17.41;nan;101271.16;5030975;28;20112;-62
2022/08/23 00:40:46;;;;;;;11.13;6.25;;;;;;;17.43;nan;101282.59;5032220;28;20033;-61
2022/08/23 00:49:16;;;;;;;9.73;5.82;;;;;;;17.36;nan;101259.06;5032191;28;20048;-62
2022/08/23 00:51:50;;;;;;;9.02;5.78;;;;;;;17.34;nan;101256.47;5014292;28;20404;-62
2022/08/23 00:54:15;;;;;;;10.73;6.50;;;;;;;17.31;nan;101250.44;5014290;28;20029;-61
2022/08/23 00:56:41;;;;;;;9.90;5.88;;;;;;;17.34;nan;101256.47;5014537;28;20030;-61
2022/08/23 00:59:07;;;;;;;11.23;6.15;;;;;;;17.04;nan;101202.25;5031827;28;20052;-60
2022/08/23 01:01:33;;;;;;;8.40;6.03;;;;;;;17.15;nan;101223.81;4999667;28;20033;-61
2022/08/23 01:03:58;;;;;;;9.55;6.07;;;;;;;17.40;nan;101265.91;5036022;28;20033;-61
2022/08/23 01:06:46;;;;;;;12.63;6.25;;;;;;;17.41;nan;101263.19;5034832;28;20120;-61
2022/08/23 01:09:16;;;;;;;12.05;6.05;;;;;;;17.49;nan;101259.22;5017949;28;20502;-61
2022/08/23 01:11:49;;;;;;;10.07;5.88;;;;;;;17.49;nan;101261.91;5035770;28;20056;-61
2022/08/23 01:14:18;;;;;;;8.45;5.90;;;;;;;17.61;nan;101267.44;5018688;28;20033;-61
2022/08/23 01:16:46;;;;;;;10.23;7.13;;;;;;;17.65;nan;101271.69;5035895;28;20200;-62
2022/08/23 01:19:22;;;;;;;9.35;5.30;;;;;;;17.53;nan;101247.50;5017978;28;20037;-61
2022/08/23 01:21:53;;;;;;;11.10;6.22;;;;;;;17.74;nan;101271.19;5034080;28;20033;-60
2022/08/23 01:24:18;;;;;;;;;;;;;;;17.81;nan;101272.53;5018215;28;20095;-62
2022/08/23 01:26:43;;;;;;;6.67;5.60;;;;;;;17.66;nan;101251.25;5017844;28;19912;-62
2022/08/23 01:29:09;;;;;;;10.20;6.00;;;;;;;17.80;nan;101265.53;5018273;28;20280;-62
2022/08/23 01:31:35;;;;;;;7.80;5.60;;;;;;;17.78;nan;101262.06;5033986;28;20124;-61
2022/08/23 01:34:05;;;;;;;7.78;5.38;;;;;;;17.62;nan;101229.25;5034836;28;20106;-60
2022/08/23 01:36:30;;;;;;;9.90;5.55;;;;;;;17.41;nan;101186.00;5017528;28;20033;-62
2022/08/23 01:38:55;;;;;;;6.47;5.45;;;;;;;17.94;nan;101270.06;5035160;28;20064;-61
2022/08/23 01:41:22;;;;;;;10.05;6.05;;;;;;;17.94;nan;101268.25;5017034;28;20045;-60
2022/08/23 01:43:47;;;;;;;8.75;5.97;;;;;;;17.92;nan;101262.16;5017548;28;20037;-62
2022/08/23 01:46:16;;;;;;;8.88;5.07;;;;;;;17.72;nan;101224.25;5034907;28;20044;-61
2022/08/23 01:48:44;;;;;;;9.60;6.10;;;;;;;18.01;nan;101265.25;5033945;28;20053;-61
2022/08/23 01:51:10;;;;;;;6.15;5.28;;;;;;;17.77;nan;101225.75;5017495;28;20030;-61
2022/08/23 01:53:35;;;;;;;9.23;5.25;;;;;;;18.03;nan;101261.56;5034902;28;20396;-62
2022/08/23 01:56:01;;;;;;;6.03;5.30;;;;;;;17.77;nan;101208.91;5017270;28;20037;-61
2022/08/23 01:58:29;;;;;;;6.85;5.10;;;;;;;17.79;nan;101210.53;5034900;28;20034;-61
2022/08/23 02:00:54;;;;;;;6.50;5.40;;;;;;;18.06;nan;101256.06;5017530;28;20037;-61
2022/08/23 02:03:20;;;;;;;9.40;6.10;;;;;;;17.79;nan;101207.88;5017133;28;20029;-60
2022/08/23 02:05:46;;;;;;;8.23;5.55;;;;;;;17.98;nan;101247.63;5034764;28;20095;-61
2022/08/23 02:10:56;;;;;;;8.55;5.00;;;;;;;18.10;nan;101265.56;5033311;28;20127;-62
2022/08/23 02:13:21;;;;;;;5.55;4.80;;;;;;;18.13;nan;101264.53;5033708;28;20029;-60
2022/08/23 02:15:50;;;;;;;8.00;5.10;;;;;;;17.68;nan;101186.31;5034864;28;20419;-61
2022/08/23 02:18:17;;;;;;;12.80;6.10;;;;;;;18.16;nan;101262.56;5034384;28;20037;-61
2022/08/23 02:20:47;;;;;;;9.60;5.75;;;;;;;18.18;nan;101268.69;5034307;28;20132;-61
2022/08/23 02:23:13;;;;;;;8.48;5.18;;;;;;;18.10;nan;101260.25;5034374;28;20037;-61
2022/08/23 02:25:39;;;;;;;7.78;5.15;;;;;;;17.95;nan;101230.00;5034703;28;20119;-61
2022/08/23 02:28:04;;;;;;;8.73;5.40;;;;;;;18.17;nan;101266.09;5016662;28;20056;-61
2022/08/23 02:30:30;;;;;;;8.32;5.40;;;;;;;18.07;nan;101255.09;5034087;28;20064;-60
2022/08/23 02:32:55;;;;;;;7.93;5.00;;;;;;;18.16;nan;101262.56;5016294;28;20033;-60
2022/08/23 02:35:21;;;;;;;7.15;5.30;;;;;;;18.15;nan;101263.53;5033315;28;20049;-62
2022/08/23 02:37:47;;;;;;;6.38;5.15;;;;;;;18.05;nan;101257.00;5000401;28;20350;-62
2022/08/23 02:40:12;;;;;;;10.20;5.63;;;;;;;18.14;nan;101266.28;5033614;28;20048;-62
2022/08/23 02:42:38;;;;;;;7.38;5.30;;;;;;;18.12;nan;101263.72;5034279;28;20042;-62
2022/08/23 02:45:04;;;;;;;8.45;6.13;;;;;;;18.13;nan;101254.75;5034004;28;20091;-62
2022/08/23 02:47:30;;;;;;;9.57;6.13;;;;;;;17.91;nan;101220.50;5016113;28;20464;-62
2022/08/23 02:49:55;;;;;;;7.65;6.40;;;;;;;18.10;nan;101252.25;5033893;28;20065;-61
2022/08/23 02:52:20;;;;;;;7.20;6.05;;;;;;;17.94;nan;101227.44;5033679;28;20369;-62
2022/08/23 02:54:46;;;;;;;10.20;5.97;;;;;;;17.93;nan;101229.25;5033891;28;20034;-61
2022/08/23 02:57:11;;;;;;;9.55;6.32;;;;;;;18.20;nan;101274.78;5033665;28;20037;-61
2022/08/23 02:59:37;;;;;;;9.05;6.15;;;;;;;18.21;nan;101273.84;5033636;28;20088;-62
2022/08/23 03:02:03;;;;;;;7.97;5.50;;;;;;;18.12;nan;101252.19;5032536;28;20068;-62
2022/08/23 03:04:28;;;;;;;11.45;6.47;;;;;;;17.95;nan;101226.47;5033643;28;20037;-63
2022/08/23 03:06:54;;;;;;;7.68;5.88;;;;;;;18.21;nan;101271.19;5032354;28;20103;-62
2022/08/23 03:09:19;;;;;;;9.30;6.07;;;;;;;18.15;nan;101274.19;5033609;28;20116;-61
2022/08/23 03:11:46;;;;;;;10.20;6.70;;;;;;;18.19;nan;101269.53;5015660;28;20107;-63
2022/08/23 03:14:11;;;;;;;8.05;5.80;;;;;;;17.89;nan;101219.69;5015923;28;20037;-62
2022/08/23 03:16:37;;;;;;;12.57;6.45;;;;;;;18.17;nan;101276.75;5033545;28;20037;-61
2022/08/23 03:19:02;;;;;;;6.10;5.47;;;;;;;18.10;nan;101264.72;5015696;28;20033;-62
2022/08/23 03:21:28;;;;;;;8.40;6.00;;;;;;;18.02;nan;101253.63;5033488;28;20033;-63
2022/08/23 03:23:53;;;;;;;7.10;5.22;;;;;;;18.12;nan;101276.16;5033143;28;20033;-62
2022/08/23 03:26:19;;;;;;;11.20;6.43;;;;;;;18.13;nan;101270.72;5033342;28;20026;-61
2022/08/23 03:28:44;;;;;;;10.43;5.78;;;;;;;18.09;nan;101273.66;5032150;28;20169;-61
2022/08/23 03:31:11;;;;;;;11.32;6.47;;;;;;;17.87;nan;101236.72;5033135;28;20042;-61
2022/08/23 03:33:37;;;;;;;7.28;5.50;;;;;;;18.03;nan;101266.88;5033226;28;20037;-62
2022/08/23 03:36:05;;;;;;;8.57;5.72;;;;;;;17.94;nan;101257.63;5033178;28;20034;-61
2022/08/23 03:38:30;;;;;;;9.70;5.57;;;;;;;17.76;nan;101231.13;5032692;28;20033;-63
2022/08/23 03:40:56;;;;;;;8.30;5.68;;;;;;;18.02;nan;101270.47;5015253;28;20052;-61
2022/08/23 03:43:21;;;;;;;8.55;6.00;;;;;;;18.03;nan;101268.69;5015110;28;20069;-62
2022/08/23 03:45:46;;;;;;;12.48;6.20;;;;;;;18.01;nan;101273.25;5031645;28;20069;-62
2022/08/23 03:48:12;;;;;;;9.90;6.13;;;;;;;18.00;nan;101280.38;5033035;28;20456;-62
2022/08/23 03:50:38;;;;;;;8.10;5.88;;;;;;;17.76;nan;101239.13;5015578;28;20041;-62
2022/08/23 03:53:04;;;;;;;8.00;6.80;;;;;;;18.01;nan;101281.25;5033051;28;20084;-62
2022/08/23 03:55:29;;;;;;;8.63;6.50;;;;;;;17.99;nan;101281.31;5032976;28;20051;-61
2022/08/23 03:57:54;;;;;;;10.48;6.40;;;;;;;17.74;nan;101233.03;5031617;28;20177;-62
2022/08/23 04:00:20;;;;;;;9.05;5.70;;;;;;;17.91;nan;101279.09;5032679;28;20029;-61
2022/08/23 04:02:45;;;;;;;12.48;7.28;;;;;;;17.67;nan;101243.16;5031138;28;20037;-62
2022/08/23 04:05:11;;;;;;;11.18;6.57;;;;;;;17.86;nan;101291.78;5014942;28;20069;-61
2022/08/23 04:07:37;;;;;;;9.40;6.03;;;;;;;17.58;nan;101241.00;5032767;28;20069;-62
2022/08/23 04:10:04;;;;;;;11.52;6.57;;;;;;;17.76;nan;101281.72;5014684;28;20405;-61
2022/08/23 04:12:30;;;;;;;11.85;6.07;;;;;;;17.69;nan;101275.00;5022044;28;20057;-61
2022/08/23 04:14:55;;;;;;;11.20;6.13;;;;;;;17.41;nan;101249.88;5051931;28;20044;-61
2022/08/23 04:17:20;;;;;;;12.65;6.78;;;;;;;17.18;nan;101217.47;5033868;28;20045;-61
2022/08/23 04:19:46;;;;;;;12.75;6.28;;;;;;;17.49;nan;101283.19;5050554;28;20037;-62
2022/08/23 04:22:13;;;;;;;12.43;6.70;;;;;;;17.43;nan;101295.88;5052110;28;20167;-62
2022/08/23 04:24:39;;;;;;;11.45;6.75;;;;;;;17.27;nan;101279.03;5034682;28;20452;-62
2022/08/23 04:27:05;;;;;;;10.27;6.30;;;;;;;17.05;nan;101249.16;5052321;28;20112;-62
2022/08/23 04:29:30;;;;;;;7.95;6.15;;;;;;;17.00;nan;101245.03;5050155;28;20164;-61
2022/08/23 04:31:56;;;;;;;11.57;6.68;;;;;;;17.15;nan;101282.34;5037038;28;20060;-61
2022/08/23 04:34:22;;;;;;;10.13;6.25;;;;;;;17.09;nan;101276.47;5031950;28;20029;-62
2022/08/23 04:36:48;;;;;;;9.30;6.78;;;;;;;16.97;nan;101271.78;5014077;28;20044;-61
2022/08/23 04:39:14;;;;;;;8.68;6.63;;;;;;;17.08;nan;101299.53;5031884;28;20069;-61
2022/08/23 04:44:24;;;;;;;9.65;6.25;;;;;;;16.77;nan;101244.44;5030736;28;20060;-62
2022/08/23 04:46:49;;;;;;;12.38;6.68;;;;;;;16.69;nan;101232.47;5032327;28;20116;-62
2022/08/23 04:49:15;;;;;;;9.32;6.43;;;;;;;16.93;nan;101270.25;5032194;28;20447;-62
2022/08/23 04:51:40;;;;;;;9.40;5.95;;;;;;;16.62;nan;101223.09;5031991;28;20120;-62
2022/08/23 04:54:09;;;;;;;9.43;6.38;;;;;;;16.61;nan;101218.69;5032129;28;20026;-61
2022/08/23 04:56:34;;;;;;;10.75;7.00;;;;;;;16.61;nan;101227.53;5030747;28;20038;-61
2022/08/23 04:59:00;;;;;;;9.20;6.72;;;;;;;16.98;nan;101298.31;5031815;28;20130;-63
2022/08/23 05:01:25;;;;;;;8.43;6.93;;;;;;;16.99;nan;101292.03;5031920;28;20436;-62
2022/08/23 05:03:52;;;;;;;13.52;7.95;;;;;;;17.08;nan;101296.88;5030600;28;20477;-63
2022/08/23 05:06:17;;;;;;;8.70;6.57;;;;;;;17.11;nan;101307.38;5031927;28;20033;-60
2022/08/23 05:08:42;;;;;;;9.80;6.72;;;;;;;16.88;nan;101268.66;5014042;28;20033;-61
2022/08/23 05:11:09;;;;;;;8.55;7.25;;;;;;;17.17;nan;101307.06;5031812;28;20051;-61
2022/08/23 05:13:35;;;;;;;10.90;6.72;;;;;;;16.84;nan;101245.81;5030497;28;20029;-63
2022/08/23 05:16:01;;;;;;;8.73;6.32;;;;;;;17.14;nan;101303.69;5031786;28;20500;-63
2022/08/23 05:18:27;;;;;;;9.55;7.22;;;;;;;17.16;nan;101307.16;5030755;28;20037;-62
2022/08/23 05:20:52;;;;;;;9.07;7.03;;;;;;;17.13;nan;101307.31;5014114;28;20029;-62
2022/08/23 05:23:18;;;;;;;9.98;7.22;;;;;;;16.80;nan;101251.41;5031656;28;20041;-61
2022/08/23 05:25:49;;;;;;;13.10;7.75;;;;;;;16.76;nan;101250.69;5031761;28;20072;-63
2022/08/23 05:28:30;;;;;;;10.88;7.32;;;;;;;17.02;nan;101301.66;5031889;28;20108;-62
2022/08/23 05:31:06;;;;;;;9.70;7.43;;;;;;;17.09;nan;101308.38;5014197;28;20038;-63
2022/08/23 05:33:33;;;;;;;10.85;7.40;;;;;;;17.12;nan;101313.56;5031761;28;20059;-62
2022/08/23 05:36:00;;;;;;;8.85;7.85;;;;;;;17.15;nan;101306.28;5014019;28;20030;-62
2022/08/23 05:38:26;;;;;;;10.07;7.72;;;;;;;17.09;nan;101284.44;5013979;28;20088;-62
2022/08/23 05:40:53;;;;;;;9.50;7.15;;;;;;;17.26;nan;101317.22;5031417;28;20515;-63
2022/08/23 05:43:19;;;;;;;12.10;7.60;;;;;;;17.27;nan;101315.41;5031702;28;20060;-62
2022/08/23 05:45:44;;;;;;;12.85;7.45;;;;;;;17.19;nan;101302.50;5013814;28;20469;-63
2022/08/23 05:48:11;;;;;;;12.43;7.82;;;;;;;16.97;nan;101259.34;5032850;28;20120;-62
2022/08/23 05:50:37;;;;;;;12.95;8.07;;;;;;;17.02;nan;101272.41;5017556;28;20034;-63
2022/08/23 05:53:04;;;;;;;16.65;8.23;;;;;;;17.27;nan;101308.31;5017185;28;20181;-62
2022/08/23 05:55:29;;;;;;;12.45;8.13;;;;;;;17.34;nan;101317.66;5035099;28;20037;-62
2022/08/23 05:57:54;;;;;;;12.30;8.15;;;;;;;17.42;nan;101322.59;5034962;28;20096;-62
2022/08/23 06:00:20;;;;;;;14.05;8.10;;;;;;;17.51;nan;101321.25;5035054;28;20047;-62
2022/08/23 06:02:47;;;;;;;14.75;8.18;;;;;;;17.27;nan;101270.19;5034801;28;20042;-62
2022/08/23 06:05:13;;;;;;;13.63;7.70;;;;;;;17.48;nan;101286.81;5033618;28;20037;-62
2022/08/23 06:07:38;;;;;;;14.75;8.52;;;;;;;17.47;nan;101261.13;5034451;28;20037;-63
2022/08/23 06:10:04;;;;;;;13.60;8.48;;;;;;;17.97;nan;101325.81;5034514;28;20033;-61
2022/08/23 06:12:30;;;;;;;13.82;7.50;;;;;;;17.58;nan;101232.16;5034452;28;20053;-62
2022/08/23 06:14:56;;;;;;;14.32;8.40;;;;;;;18.35;nan;101335.22;5017124;28;20251;-63
2022/08/23 06:17:22;;;;;;;13.35;8.50;;;;;;;18.12;nan;101279.69;5034715;28;20389;-62
2022/08/23 06:19:47;;;;;;;17.80;8.95;;;;;;;18.70;nan;101346.53;5034583;28;20132;-62
2022/08/23 06:22:12;;;;;;;13.35;8.55;;;;;;;18.78;nan;101325.63;5034677;28;20052;-62
2022/08/23 06:24:37;;;;;;;13.32;8.57;;;;;;;19.06;nan;101343.50;5016881;28;20037;-62
2022/08/23 06:27:03;;;;;;;11.77;7.65;;;;;;;19.20;nan;101340.03;5034586;28;20033;-61
2022/08/23 06:29:28;;;;;;;12.80;8.23;;;;;;;19.36;nan;101349.69;5016745;28;20030;-63
2022/08/23 06:31:54;;;;;;;12.00;8.25;;;;;;;19.38;nan;101336.25;5034266;28;20045;-63
2022/08/23 06:34:24;;;;;;;11.95;8.45;;;;;;;19.38;nan;101288.19;5033149;28;20037;-63
2022/08/23 06:36:55;;;;;;;11.20;7.70;;;;;;;19.93;nan;101349.75;5016539;28;20026;-62
2022/08/23 06:39:23;;;;;;;14.05;9.10;;;;;;;20.19;nan;101354.28;5034165;28;20443;-62
2022/08/23 06:41:49;;;;;;;10.45;7.82;;;;;;;20.06;nan;101291.88;5016415;28;20033;-63
2022/08/23 06:44:15;;;;;;;8.60;6.63;;;;;;;20.26;nan;101296.81;5032830;28;20120;-63
2022/08/23 06:46:41;;;;;;;9.85;7.07;;;;;;;20.79;nan;101344.09;5016472;28;20033;-63
2022/08/23 06:49:07;;;;;;;7.90;5.38;;;;;;;20.84;nan;101317.88;5033908;28;20083;-62
2022/08/23 06:51:36;;;;;;;10.70;5.75;;;;;;;21.30;nan;101377.22;5033859;28;20091;-62
2022/08/23 06:54:05;;;;;;;10.25;5.75;;;;;;;21.18;nan;101333.41;5032817;28;20129;-62
2022/08/23 06:56:31;;;;;;;7.93;5.50;;;;;;;21.54;nan;101378.19;5034021;28;20025;-63
2022/08/23 06:58:56;;;;;;;8.65;5.40;;;;;;;21.56;nan;101378.09;5032295;28;20477;-63
2022/08/23 07:01:32;;;;;;;9.52;5.80;;;;;;;21.34;nan;101327.00;5032575;28;20033;-63
2022/08/23 07:03:59;;;;;;;10.82;5.72;;;;;;;21.74;nan;101363.44;5015724;28;20135;-63
2022/08/23 07:06:25;;;;;;;8.82;5.30;;;;;;;21.65;nan;101335.47;5016194;28;20030;-64
2022/08/23 07:08:51;;;;;;;9.07;5.18;;;;;;;22.10;nan;101376.03;5015912;28;20049;-63
2022/08/23 07:11:17;;;;;;;8.15;4.88;;;;;;;22.30;nan;101383.50;5031650;28;20547;-63
2022/08/23 07:13:42;;;;;;;8.00;5.50;;;;;;;22.22;nan;101345.66;5033517;28;20396;-63
2022/08/23 07:16:07;;;;;;;9.88;5.30;;;;;;;22.63;nan;101393.59;5015640;28;20507;-63
2022/08/23 07:18:33;;;;;;;7.90;5.65;;;;;;;22.51;nan;101349.75;5033490;28;20030;-63
2022/08/23 07:21:01;;;;;;;8.48;5.13;;;;;;;22.60;nan;101348.22;5033500;28;20029;-64
2022/08/23 07:23:32;;;;;;;11.50;5.78;;;;;;;23.04;nan;101404.84;5033402;28;20033;-62
2022/08/23 07:26:01;;;;;;;14.70;7.90;;;;;;;23.18;nan;101412.69;5033343;28;20116;-64
2022/08/23 07:28:27;;;;;;;10.73;4.78;;;;;;;23.30;nan;101400.16;5033362;28;20036;-64
2022/08/23 07:30:54;;;;;;;9.73;4.57;;;;;;;23.24;nan;101379.13;5015352;28;20469;-63
2022/08/23 07:33:19;;;;;;;9.13;4.07;;;;;;;23.55;nan;101408.09;5031119;28;20489;-63
2022/08/23 07:35:49;;;;;;;8.45;4.80;;;;;;;23.67;nan;101406.28;5030500;28;20029;-63
2022/08/23 07:38:16;;;;;;;8.93;4.83;;;;;;;23.68;nan;101387.34;5013568;28;20126;-64
2022/08/23 07:40:43;;;;;;;5.13;3.63;;;;;;;23.90;nan;101418.78;5031522;28;20179;-62
2022/08/23 07:43:08;;;;;;;5.65;4.13;;;;;;;;;;4996490;28;20378;-62
2022/08/23 07:45:39;;;;;;;7.67;3.27;;;;;;;24.82;nan;101375.41;5030353;28;20044;-64
2022/08/23 07:48:05;;;;;;;;;;;;;;;25.72;nan;101440.38;5014463;28;20072;-63
2022/08/23 07:50:30;;;;;;;5.35;3.00;;;;;;;26.50;nan;101445.22;5013511;28;19956;-63
2022/08/23 07:52:55;;;;;;;9.48;3.35;;;;;;;27.23;nan;101460.16;5029758;28;20038;-63
2022/08/23 07:55:21;;;;;;;3.72;2.03;;;;;;;27.76;nan;101461.41;5031434;28;20362;-63
2022/08/23 07:57:46;;;;;;;6.32;2.53;;;;;;;28.46;nan;101441.97;5013427;28;20043;-62
2022/08/23 08:00:12;;;;;;;4.18;2.25;;;;;;;28.94;nan;101438.16;5013399;28;20038;-62
2022/08/23 08:02:39;;;;;;;4.97;2.10;;;;;;;29.44;nan;101484.59;5031342;28;20124;-63
2022/08/23 08:05:04;;;;;;;2.50;1.73;;;;;;;29.61;nan;101448.44;5013250;28;20116;-65
2022/08/23 08:07:30;;;;;;;4.28;1.90;;;;;;;30.04;nan;101466.59;5031066;28;20129;-64
2022/08/23 08:09:56;;;;;;;8.68;2.28;;;;;;;30.41;nan;101456.31;5030707;28;20052;-63
2022/08/23 08:12:22;;;;;;;4.68;2.22;;;;;;;31.21;nan;101510.09;5030413;28;20049;-65
2022/08/23 08:14:47;;;;;;;4.70;2.10;;;;;;;31.35;nan;101522.19;5030737;28;20044;-66
2022/08/23 08:17:13;;;;;;;4.00;2.10;;;;;;;31.35;nan;101514.03;5030950;28;20037;-65
2022/08/23 08:19:40;;;;;;;6.57;2.80;;;;;;;31.49;nan;101521.59;5031046;28;20038;-65
2022/08/23 08:22:06;;;;;;;5.28;2.33;;;;;;;30.98;nan;101503.59;5013390;28;20113;-67
2022/08/23 08:24:31;;;;;;;5.25;2.47;;;;;;;30.47;nan;101499.09;5030567;28;20124;-65
2022/08/23 08:26:57;;;;;;;6.85;2.40;;;;;;;30.09;nan;101518.56;5031200;28;20038;-65
2022/08/23 08:29:22;;;;;;;6.47;2.80;;;;;;;29.55;nan;101476.19;5029398;28;20112;-64
2022/08/23 08:31:49;;;;;;;4.32;2.65;;;;;;;29.70;nan;101511.75;5030744;28;20038;-65
2022/08/23 08:34:17;;;;;;;7.00;3.05;;;;;;;29.52;nan;101500.94;5032458;28;20166;-61
2022/08/23 08:36:50;;;;;;;7.10;2.83;;;;;;;29.20;nan;101487.03;5048236;28;20044;-65
2022/08/23 08:39:24;;;;;;;6.63;2.30;;;;;;;28.92;nan;101510.63;5049685;28;20575;-66
2022/08/23 08:42:03;;;;;;;5.50;3.10;;;;;;;28.76;nan;101514.00;5015702;28;20555;-66
2022/08/23 08:44:28;;;;;;;4.72;2.63;;;;;;;28.38;nan;101509.56;5031981;28;20550;-65
2022/08/23 08:46:58;;;;;;;5.33;2.53;;;;;;;27.84;nan;101460.69;5032425;28;20081;-65
2022/08/23 08:49:49;;;;;;;6.15;2.08;;;;;;;27.89;nan;101512.50;5050672;28;20287;-64
2022/08/23 08:52:21;;;;;;;5.32;2.17;;;;;;;28.13;nan;101496.69;5039282;28;20037;-66
2022/08/23 08:54:49;;;;;;;2.75;1.80;;;;;;;28.28;nan;101472.72;5050310;28;20039;-66
2022/08/23 08:57:18;;;;;;;4.53;1.80;;;;;;;28.67;nan;101495.91;5032339;28;20021;-65
2022/08/23 08:59:59;;;;;;;10.97;2.77;;;;;;;28.56;nan;101517.75;5032763;28;20064;-66
2022/08/23 09:02:29;;;;;;;3.33;1.73;;;;;;;28.58;nan;101509.47;5032345;28;20295;-65
2022/08/23 09:04:55;;;;;;;4.00;2.03;;;;;;;28.19;nan;101509.63;5032192;28;20033;-65
2022/08/23 09:07:41;;;;;;;7.25;2.72;;;;;;;27.94;nan;101512.94;5049974;28;20044;-66
2022/08/23 09:10:09;;;;;;;7.95;2.30;;;;;;;27.70;nan;101507.16;5050329;28;20029;-65
2022/08/23 09:12:50;;;;;;;4.38;1.70;;;;;;;27.24;nan;101464.56;5050201;28;20053;-65
2022/08/23 09:15:29;;;;;;;7.13;2.40;;;;;;;27.49;nan;101511.84;5031854;28;20560;-66
2022/08/23 09:18:02;;;;;;;6.57;2.67;;;;;;;27.37;nan;101509.25;5032379;28;20032;-66
2022/08/23 09:20:28;;;;;;;4.55;1.95;;;;;;;27.26;nan;101509.34;5032682;28;20124;-65
2022/08/23 09:23:16;;;;;;;3.13;2.10;;;;;;;26.93;nan;101457.56;5052462;28;20120;-65
2022/08/23 09:25:53;;;;;;;5.22;2.28;;;;;;;26.72;nan;101436.03;5036337;28;20115;-66
2022/08/23 09:28:19;;;;;;;5.47;1.90;;;;;;;27.14;nan;101512.34;5054321;28;20465;-66
2022/08/23 09:30:55;;;;;;;5.28;2.78;;;;;;;26.98;nan;101493.09;5053908;28;20033;-66
2022/08/23 09:33:24;;;;;;;6.65;2.42;;;;;;;26.67;nan;101457.19;5035478;28;20028;-66
2022/08/23 09:36:04;;;;;;;3.13;2.10;;;;;;;26.95;nan;101499.66;5053471;28;20036;-67
2022/08/23 09:38:31;;;;;;;5.63;2.53;;;;;;;26.92;nan;101467.50;5054116;28;20067;-66
2022/08/23 09:40:57;;;;;;;5.05;2.03;;;;;;;27.05;nan;101478.91;5018402;28;20029;-66
2022/08/23 09:43:26;;;;;;;3.38;2.13;;;;;;;27.24;nan;101488.88;5031539;28;20029;-66
2022/08/23 09:45:51;;;;;;;6.32;1.98;;;;;;;27.34;nan;101514.94;5034528;28;20045;-67
2022/08/23 09:48:40;;;;;;;6.32;2.80;;;;;;;27.43;nan;101507.84;5053549;28;20051;-66
2022/08/23 09:51:22;;;;;;;6.82;1.73;;;;;;;28.38;nan;101523.09;5035638;28;20044;-66
2022/08/23 09:54:20;;;;;;;4.25;2.00;;;;;;;29.78;nan;101522.69;5035573;28;20036;-66
2022/08/23 09:56:52;;;;;;;3.95;1.80;;;;;;;31.37;nan;101539.22;5008070;28;20080;-66
2022/08/23 09:59:26;;;;;;;7.05;3.15;;;;;;;32.37;nan;101547.03;5018635;28;20040;-66
2022/08/23 10:01:57;;;;;;;5.65;2.95;;;;;;;33.00;nan;101557.94;5034881;28;20067;-66
2022/08/23 10:04:37;;;;;;;8.88;3.08;;;;;;;33.40;nan;101549.56;5035136;28;20594;-64
2022/08/23 10:07:24;;;;;;;6.20;2.17;;;;;;;33.87;nan;101546.66;5053580;28;20037;-67
2022/08/23 10:09:50;;;;;;;8.18;2.50;;;;;;;33.89;nan;101547.31;5052991;28;20537;-65
2022/08/23 10:12:15;;;;;;;5.45;2.20;;;;;;;33.06;nan;101543.59;5033634;28;20141;-66
2022/08/23 10:14:41;;;;;;;6.65;2.67;;;;;;;32.15;nan;101523.28;5034695;28;20101;-66
2022/08/23 10:17:11;;;;;;;6.82;2.50;;;;;;;31.91;nan;101498.75;5035078;28;20040;-67
2022/08/23 10:19:42;;;;;;;4.32;1.95;;;;;;;32.41;nan;101529.34;5034028;28;20120;-67
2022/08/23 10:22:22;;;;;;;4.18;1.83;;;;;;;32.92;nan;101524.41;5053045;28;20029;-65
2022/08/23 10:25:05;;;;;;;5.32;1.80;;;;;;;33.11;nan;101522.09;5051823;28;20037;-67
2022/08/23 10:30:56;;;;;;;3.47;1.45;;;;;;;33.18;nan;101506.72;5051330;28;20140;-65
2022/08/23 10:33:25;;;;;;;6.40;2.33;;;;;;;33.43;nan;101529.22;5042390;28;20426;-68
2022/08/23 10:36:22;;;;;;;3.45;1.70;;;;;;;33.98;nan;101498.09;5034277;28;20029;-68
2022/08/23 10:38:56;;;;;;;3.97;1.67;;;;;;;34.92;nan;101544.69;5034367;28;20464;-66
2022/08/23 10:41:49;;;;;;;5.03;2.10;;;;;;;34.73;nan;101545.31;5034956;28;20053;-67
2022/08/23 10:44:50;;;;;;;6.30;1.58;;;;;;;34.25;nan;101492.88;5034273;28;20082;-68
2022/08/23 10:47:41;;;;;;;4.20;1.40;;;;;;;34.35;nan;101541.78;5017731;28;20460;-66
2022/08/23 10:50:15;;;;;;;3.75;1.40;;;;;;;34.21;nan;101527.06;5051699;28;20064;-67
2022/08/23 10:53:12;;;;;;;4.65;1.52;;;;;;;34.41;nan;101521.91;5050578;28;20480;-65
2022/08/23 10:56:04;;;;;;;3.95;1.50;;;;;;;34.19;nan;101518.19;5033971;28;20103;-67
2022/08/23 10:58:53;;;;;;;5.72;1.95;;;;;;;33.81;nan;101491.91;5034467;28;20040;-68
2022/08/23 11:01:25;;;;;;;1.40;1.05;;;;;;;33.81;nan;101538.34;5017335;28;20147;-65
2022/08/23 11:04:00;;;;;;;3.35;1.00;;;;;;;33.63;nan;101488.66;5051528;28;20044;-67
2022/08/23 11:06:40;;;;;;;3.30;1.20;;;;;;;34.65;nan;101534.47;5017779;28;20025;-66
2022/08/23 11:09:17;;;;;;;6.13;1.80;;;;;;;34.87;nan;101498.78;5051946;28;20067;-64
2022/08/23 11:11:48;;;;;;;4.20;1.10;;;;;;;35.63;nan;101532.09;5051357;28;20099;-63
2022/08/23 11:14:37;;;;;;;3.47;1.30;;;;;;;36.06;nan;101539.22;5033665;28;20025;-65
2022/08/23 11:17:06;;;;;;;4.70;1.60;;;;;;;35.81;nan;101514.16;5051336;28;20021;-66
2022/08/23 11:19:47;;;;;;;5.35;1.33;;;;;;;34.13;nan;101539.94;5032131;28;20076;-68
2022/08/23 11:22:26;;;;;;;1.95;1.02;;;;;;;32.92;nan;101544.34;5033284;28;20032;-66
2022/08/23 11:25:02;;;;;;;2.60;1.27;;;;;;;32.88;nan;101529.38;5033283;28;20075;-63
2022/08/23 11:27:32;;;;;;;3.30;1.20;;;;;;;34.04;nan;101549.22;5050470;28;20045;-64
2022/08/23 11:30:33;;;;;;;2.05;1.00;;;;;;;35.27;nan;101549.38;5033112;28;20124;-65
2022/08/23 11:33:01;;;;;;;2.53;1.15;;;;;;;35.46;nan;101548.75;5049098;28;20102;-67
2022/08/23 11:35:34;;;;;;;4.97;1.00;;;;;;;35.32;nan;101552.38;5031616;28;20043;-64
2022/08/23 11:38:00;;;;;;;2.30;1.10;;;;;;;36.05;nan;101556.72;5050218;28;20076;-63
2022/08/23 11:40:54;;;;;;;1.95;1.20;;;;;;;36.52;nan;101518.47;5032292;28;20048;-66
2022/08/23 11:43:36;;;;;;;3.53;1.40;;;;;;;37.45;nan;101561.75;5049988;28;20040;-64
2022/08/23 11:46:30;;;;;;;5.85;1.48;;;;;;;37.83;nan;101553.75;5049755;28;20476;-66
2022/08/23 11:49:37;;;;;;;3.70;1.48;;;;;;;38.33;nan;101560.53;5050993;28;20447;-65
2022/08/23 11:52:15;;;;;;;2.67;1.42;;;;;;;37.26;nan;101565.28;4950369;29;20129;-62
2022/08/23 11:54:46;;;;;;;2.70;1.30;;;;;;;36.39;nan;101565.00;4950197;29;20479;-65
2022/08/23 11:57:29;;;;;;;3.95;1.50;;;;;;;36.69;nan;101527.25;5010169;28;20073;-65
2022/08/23 12:00:10;;;;;;;2.92;1.60;;;;;;;36.77;nan;101546.25;5050552;28;20029;-65
2022/08/23 12:02:46;;;;;;;4.50;1.73;;;;;;;36.21;nan;101563.78;5015238;28;20035;-65
2022/08/23 12:05:16;;;;;;;3.17;1.90;;;;;;;35.49;nan;101572.16;5051139;28;20029;-66
2022/08/23 12:07:46;;;;;;;2.85;1.40;;;;;;;34.82;nan;101555.94;5051012;28;20100;-64